South Palm Beach, Florida
Current Conditions -  °F | °C
As of 12:53 PM on Thursday 30 Oct 2014 (Local Time) from KPBI Reporting Station
Broken Clouds Broken Clouds  
Wind Chill: 28°   Ceiling: 4700
Heat Index: 28°   Visibility: 10mi
Dew Point: 17°   Wind: 7mph
Humidity: 51%   Direction: 340°NNW
Pressure: 29.93"   Gusts: NA
Location:  26.6941°N, 80.0379°W
Report Text: KPBI 301653Z 34006KT 10SM BKN047 BKN100 BKN250 28/17 A2993 RMK AO2 SLP136 T02780167
Loading
Personal Weather Stations






























Interactive Weather Map
Tropical Storm Tracking
New forecast layout! Learn more

10-Day Weather Forecast

Advertisements
Track Severe Weather on mobile